createdAt,value
2023-02-06T00:01:40.156Z,-1.00
2023-02-06T00:04:08.773Z,-1.00
2023-02-06T00:06:42.271Z,-1.00
2023-02-06T00:09:10.821Z,-1.00
2023-02-06T00:11:42.299Z,-1.00
2023-02-06T00:14:10.596Z,-1.00
2023-02-06T00:16:58.613Z,-1.00
2023-02-06T00:19:27.012Z,-1.00
2023-02-06T00:21:55.568Z,-1.00
2023-02-06T00:24:23.949Z,-1.00
2023-02-06T00:26:52.628Z,-1.00
2023-02-06T00:29:21.211Z,-1.00
2023-02-06T00:31:50.115Z,-1.00
2023-02-06T00:34:18.488Z,-1.00
2023-02-06T00:36:46.988Z,-1.00
2023-02-06T00:39:15.640Z,-1.00
2023-02-06T00:41:44.375Z,-1.00
2023-02-06T00:44:12.703Z,-1.00
2023-02-06T00:46:42.134Z,-1.00
2023-02-06T00:49:10.540Z,-1.00
2023-02-06T00:51:40.028Z,-1.00
2023-02-06T00:54:09.589Z,-1.00
2023-02-06T00:56:38.456Z,-1.00
2023-02-06T00:59:06.866Z,-1.00
2023-02-06T01:01:35.775Z,-1.00
2023-02-06T01:04:04.324Z,-1.00
2023-02-06T01:06:42.937Z,-1.00
2023-02-06T01:09:11.620Z,-1.00
2023-02-06T01:11:40.120Z,-1.00
2023-02-06T01:14:08.679Z,-1.00
2023-02-06T01:16:38.329Z,-1.00
2023-02-06T01:19:07.068Z,-1.00
2023-02-06T01:21:36.500Z,-1.00
2023-02-06T01:24:05.012Z,-1.00
2023-02-06T01:26:33.521Z,-1.00
2023-02-06T01:29:02.117Z,-1.00
2023-02-06T01:31:31.153Z,-1.00
2023-02-06T01:34:00.065Z,-1.00
2023-02-06T01:36:28.513Z,-1.00
2023-02-06T01:38:58.178Z,-1.00
2023-02-06T01:41:26.657Z,-1.00
2023-02-06T01:44:13.616Z,-1.00
2023-02-06T01:46:45.099Z,-1.00
2023-02-06T01:49:44.222Z,-1.00
2023-02-06T01:52:23.750Z,-1.00
2023-02-06T01:54:57.809Z,-1.00
2023-02-06T01:57:26.443Z,-1.00
2023-02-06T01:59:59.080Z,-1.00
2023-02-06T02:02:27.445Z,-1.00
2023-02-06T02:04:56.539Z,-1.00
2023-02-06T02:07:35.820Z,-1.00
2023-02-06T02:10:05.189Z,-1.00
2023-02-06T02:12:36.200Z,-1.00
2023-02-06T02:15:05.562Z,-1.00
2023-02-06T02:18:03.333Z,-1.00
2023-02-06T02:21:06.947Z,-1.00
2023-02-06T02:24:00.908Z,-1.00
2023-02-06T02:26:38.440Z,-1.00
2023-02-06T02:29:34.426Z,-1.00
2023-02-06T02:32:21.198Z,-1.00
2023-02-06T02:35:08.143Z,-1.00
2023-02-06T02:38:06.527Z,-1.00
2023-02-06T02:40:53.625Z,-1.00
2023-02-06T02:43:44.584Z,-1.00
2023-02-06T02:46:19.279Z,-1.00
2023-02-06T02:48:49.345Z,-1.00
2023-02-06T02:51:17.730Z,-1.00
2023-02-06T02:53:46.850Z,-1.00
2023-02-06T02:56:17.927Z,-1.00
2023-02-06T02:58:46.994Z,-1.00
2023-02-06T03:01:19.753Z,-1.00
2023-02-06T03:03:48.694Z,-1.00
2023-02-06T03:06:40.680Z,-1.00
2023-02-06T03:09:23.805Z,-1.00
2023-02-06T03:11:59.215Z,-1.00
2023-02-06T03:14:34.342Z,-1.00
2023-02-06T03:17:10.176Z,-1.00
2023-02-06T03:19:45.815Z,-1.00
2023-02-06T03:22:14.608Z,-1.00
2023-02-06T03:24:42.840Z,-1.00
2023-02-06T03:27:13.316Z,-1.00
2023-02-06T03:29:41.801Z,-1.00
2023-02-06T03:32:35.517Z,-1.00
2023-02-06T03:35:10.407Z,-1.00
2023-02-06T03:37:38.741Z,-1.00
2023-02-06T03:40:27.196Z,-1.00
2023-02-06T03:42:57.313Z,-1.00
2023-02-06T03:45:47.117Z,-1.00
2023-02-06T03:48:19.552Z,-1.00
2023-02-06T03:50:48.215Z,-1.00
2023-02-06T03:53:17.106Z,-1.00
2023-02-06T03:55:46.250Z,-1.00
2023-02-06T03:58:14.996Z,-1.00
2023-02-06T04:00:43.416Z,-1.00
2023-02-06T04:03:11.945Z,-1.00
2023-02-06T04:05:40.526Z,-1.00
2023-02-06T04:08:10.131Z,-1.00
2023-02-06T04:10:38.517Z,-1.00
2023-02-06T04:13:07.908Z,-1.00
2023-02-06T04:15:36.585Z,-1.00
2023-02-06T04:18:06.123Z,-1.00
2023-02-06T04:20:34.678Z,-1.00
2023-02-06T04:23:03.365Z,-1.00
2023-02-06T04:25:32.054Z,-1.00
2023-02-06T04:28:00.397Z,-1.00
2023-02-06T04:30:29.007Z,-1.00
2023-02-06T04:32:57.789Z,-1.00
2023-02-06T04:35:26.577Z,-1.00
2023-02-06T04:37:55.212Z,-1.00
2023-02-06T04:40:23.842Z,-1.00
2023-02-06T04:42:52.108Z,-1.00
2023-02-06T04:45:20.292Z,-1.00
2023-02-06T04:47:50.389Z,-1.00
2023-02-06T04:50:19.089Z,-1.00
2023-02-06T04:52:47.305Z,-1.00
2023-02-06T04:55:15.739Z,-1.00
2023-02-06T04:57:44.319Z,-1.00
2023-02-06T05:00:13.578Z,-1.00
2023-02-06T05:02:41.924Z,-1.00
2023-02-06T05:05:12.518Z,-1.00
2023-02-06T05:07:40.929Z,-1.00
2023-02-06T05:10:10.144Z,-1.00
2023-02-06T05:12:39.181Z,-1.00
2023-02-06T05:15:08.233Z,-1.00
2023-02-06T05:17:36.549Z,-1.00
2023-02-06T05:20:06.159Z,-1.00
2023-02-06T05:22:35.040Z,-1.00
2023-02-06T05:25:03.546Z,-1.00
2023-02-06T05:27:32.408Z,-1.00
2023-02-06T05:30:00.699Z,-1.00
2023-02-06T05:32:29.137Z,-1.00
2023-02-06T05:34:57.371Z,-1.00
2023-02-06T05:37:25.814Z,-1.00
2023-02-06T05:39:54.088Z,-1.00
2023-02-06T05:42:22.326Z,-1.00
2023-02-06T05:44:51.251Z,-1.00
2023-02-06T05:47:19.426Z,-1.00
2023-02-06T05:49:48.519Z,-1.00
2023-02-06T05:52:16.715Z,-1.00
2023-02-06T05:54:46.451Z,-1.00
2023-02-06T05:57:14.780Z,-1.00
2023-02-06T05:59:43.460Z,-1.00
2023-02-06T06:02:11.837Z,-1.00
2023-02-06T06:04:40.357Z,-1.00
2023-02-06T06:07:09.000Z,-1.00
2023-02-06T06:09:37.309Z,-1.00
2023-02-06T06:12:06.358Z,-1.00
2023-02-06T06:14:34.509Z,-1.00
2023-02-06T06:17:03.649Z,-1.00
2023-02-06T06:19:32.699Z,-1.00
2023-02-06T06:22:00.838Z,-1.00
2023-02-06T06:24:29.289Z,-1.00
2023-02-06T06:26:59.568Z,-1.00
2023-02-06T06:29:28.075Z,-1.00
2023-02-06T06:31:58.744Z,-1.00
2023-02-06T06:34:27.717Z,-1.00
2023-02-06T06:36:55.829Z,-1.00
2023-02-06T06:39:24.431Z,-1.00
2023-02-06T06:41:53.153Z,-1.00
2023-02-06T06:44:22.540Z,-1.00
2023-02-06T06:46:53.257Z,-1.00
2023-02-06T06:49:21.949Z,-1.00
2023-02-06T06:51:50.529Z,-1.00
2023-02-06T06:54:19.661Z,-1.00
2023-02-06T06:56:47.793Z,-1.00
2023-02-06T06:59:16.096Z,-1.00
2023-02-06T07:01:44.224Z,-1.00
2023-02-06T07:04:12.925Z,-1.00
2023-02-06T07:06:41.509Z,-1.00
2023-02-06T07:09:09.603Z,-1.00
2023-02-06T07:11:37.998Z,-1.00
2023-02-06T07:14:07.005Z,-1.00
2023-02-06T07:16:35.487Z,-1.00
2023-02-06T07:19:04.003Z,-1.00
2023-02-06T07:21:32.421Z,-1.00
2023-02-06T07:24:05.241Z,-1.00
2023-02-06T07:26:33.414Z,-1.00
2023-02-06T07:29:04.064Z,-1.00
2023-02-06T07:31:32.448Z,-1.00
2023-02-06T07:34:02.357Z,-1.00
2023-02-06T07:36:31.183Z,-1.00
2023-02-06T07:38:59.777Z,-1.00
2023-02-06T07:41:28.116Z,-1.00
2023-02-06T07:43:56.633Z,-1.00
2023-02-06T07:46:25.796Z,-1.00
2023-02-06T07:48:54.354Z,-1.00
2023-02-06T07:51:23.082Z,-1.00
2023-02-06T07:54:34.276Z,-1.00
2023-02-06T07:57:05.284Z,-1.00
2023-02-06T07:59:33.772Z,-1.00
2023-02-06T08:02:03.190Z,-1.00
2023-02-06T08:04:35.763Z,-1.00
2023-02-06T08:07:04.937Z,-1.00
2023-02-06T08:09:33.671Z,-1.00
2023-02-06T08:12:02.092Z,-1.00
2023-02-06T08:14:31.498Z,-1.00
2023-02-06T08:17:00.567Z,-1.00
2023-02-06T08:19:30.630Z,-1.00
2023-02-06T08:21:59.495Z,-1.00
2023-02-06T08:24:28.039Z,-1.00
2023-02-06T08:26:56.521Z,-1.00
2023-02-06T08:29:25.342Z,-1.00
2023-02-06T08:31:53.710Z,-1.00
2023-02-06T08:34:22.095Z,-1.00
2023-02-06T08:36:50.674Z,-1.00
2023-02-06T08:39:19.417Z,-1.00
2023-02-06T08:41:47.691Z,-1.00
2023-02-06T08:44:17.374Z,-1.00
2023-02-06T08:46:46.495Z,-1.00
2023-02-06T08:49:16.571Z,-1.00
2023-02-06T08:51:44.845Z,-1.00
2023-02-06T08:54:21.310Z,-1.00
2023-02-06T08:56:50.159Z,-1.00
2023-02-06T08:59:19.861Z,-1.00
2023-02-06T09:01:49.547Z,-1.00
2023-02-06T09:04:19.528Z,-1.00
2023-02-06T09:06:49.275Z,-1.00
2023-02-06T09:09:18.621Z,-1.00
2023-02-06T09:11:47.720Z,-1.00
2023-02-06T09:14:17.355Z,-1.00
2023-02-06T09:16:46.270Z,-1.00
2023-02-06T09:19:14.863Z,-1.00
2023-02-06T09:21:43.287Z,-1.00
2023-02-06T09:24:12.282Z,-1.00
2023-02-06T09:26:58.461Z,-1.00
2023-02-06T09:29:29.350Z,-1.00
2023-02-06T09:31:57.838Z,-1.00
2023-02-06T09:34:26.283Z,-1.00
2023-02-06T09:36:55.134Z,-1.00
2023-02-06T09:39:23.835Z,-1.00
2023-02-06T09:41:55.714Z,-1.00
2023-02-06T09:44:27.525Z,-1.00
2023-02-06T09:47:14.745Z,-1.00
2023-02-06T09:50:07.730Z,-1.00
2023-02-06T09:53:06.702Z,-1.00
2023-02-06T09:55:43.757Z,-1.00
2023-02-06T09:58:16.283Z,-1.00
2023-02-06T10:00:47.805Z,-1.00
2023-02-06T10:03:41.417Z,-1.00
2023-02-06T10:06:14.861Z,-1.00
2023-02-06T10:09:10.375Z,-1.00
2023-02-06T10:11:41.726Z,-1.00
2023-02-06T10:14:19.245Z,-1.00
2023-02-06T10:16:56.298Z,-1.00
2023-02-06T10:19:37.582Z,-1.00
2023-02-06T10:22:53.740Z,-1.00
2023-02-06T10:25:28.806Z,-1.00
2023-02-06T10:27:58.874Z,-1.00
2023-02-06T10:30:58.117Z,-1.00
2023-02-06T10:33:51.587Z,-1.00
2023-02-06T10:40:37.445Z,-1.00
2023-02-06T10:43:23.419Z,-1.00
2023-02-06T10:45:58.145Z,-1.00
2023-02-06T10:48:33.069Z,-1.00
2023-02-06T10:51:35.314Z,-1.00
2023-02-06T10:54:05.432Z,-1.00
2023-02-06T10:56:36.919Z,-1.00
2023-02-06T10:59:11.309Z,-1.00
2023-02-06T11:01:42.067Z,-1.00
2023-02-06T11:04:20.312Z,-1.00
2023-02-06T11:06:49.022Z,-1.00
2023-02-06T11:09:17.801Z,-1.00
2023-02-06T11:11:48.636Z,-1.00
2023-02-06T11:14:29.206Z,-1.00
2023-02-06T11:17:00.659Z,-1.00
2023-02-06T11:19:35.704Z,-1.00
2023-02-06T11:22:07.558Z,-1.00
2023-02-06T11:24:36.639Z,-1.00
2023-02-06T11:27:16.758Z,-1.00
2023-02-06T11:29:49.396Z,-1.00
2023-02-06T11:32:38.118Z,-1.00
2023-02-06T11:35:17.760Z,-1.00
2023-02-06T11:37:47.996Z,-1.00
2023-02-06T11:40:23.952Z,-1.00
2023-02-06T11:43:24.564Z,-1.00
2023-02-06T11:46:15.695Z,-1.00
2023-02-06T11:48:45.527Z,-1.00
2023-02-06T11:51:14.170Z,-1.00
2023-02-06T11:53:58.350Z,-1.00
2023-02-06T11:56:27.282Z,-1.00
2023-02-06T11:59:17.164Z,-1.00
2023-02-06T12:01:48.932Z,-1.00
2023-02-06T12:04:27.976Z,-1.00
2023-02-06T12:07:32.648Z,-1.00
2023-02-06T12:10:06.917Z,-1.00
2023-02-06T12:12:38.925Z,-1.00
2023-02-06T12:15:43.612Z,-1.00
2023-02-06T12:18:19.150Z,-1.00
2023-02-06T12:20:53.344Z,-1.00
2023-02-06T12:23:42.763Z,-1.00
2023-02-06T12:26:14.732Z,-1.00
2023-02-06T12:28:49.827Z,-1.00
2023-02-06T12:31:39.062Z,-1.00
2023-02-06T12:34:16.517Z,-1.00
2023-02-06T12:37:00.546Z,-1.00
2023-02-06T12:39:32.176Z,-1.00
2023-02-06T12:42:03.420Z,-1.00
2023-02-06T12:44:43.468Z,-1.00
2023-02-06T12:47:45.074Z,-1.00
2023-02-06T12:51:13.836Z,-1.00
2023-02-06T12:54:00.960Z,-1.00
2023-02-06T12:57:08.117Z,-1.00
2023-02-06T13:00:02.046Z,-1.00
2023-02-06T13:02:52.812Z,-1.00
2023-02-06T13:05:25.272Z,-1.00
2023-02-06T13:07:54.933Z,-1.00
2023-02-06T13:10:28.777Z,-1.00
2023-02-06T13:13:00.164Z,-1.00
2023-02-06T13:15:33.641Z,-1.00
2023-02-06T13:18:02.473Z,-1.00
2023-02-06T13:20:33.267Z,-1.00
2023-02-06T13:23:13.611Z,-1.00
2023-02-06T13:25:42.138Z,-1.00
2023-02-06T13:28:22.882Z,-1.00
2023-02-06T13:31:02.990Z,-1.00
2023-02-06T13:33:48.389Z,-1.00
2023-02-06T13:36:18.954Z,-1.00
2023-02-06T13:38:47.493Z,-1.00
2023-02-06T13:41:19.163Z,-1.00
2023-02-06T13:43:57.865Z,-1.00
2023-02-06T13:47:08.692Z,-1.00
2023-02-06T13:50:16.661Z,-1.00
2023-02-06T13:52:50.786Z,-1.00
2023-02-06T13:55:38.896Z,-1.00
2023-02-06T13:58:22.165Z,-1.00
2023-02-06T14:00:50.479Z,-1.00
2023-02-06T14:03:23.303Z,-1.00
2023-02-06T14:06:28.505Z,-1.00
2023-02-06T14:09:30.744Z,-1.00
2023-02-06T14:12:36.763Z,-1.00
2023-02-06T14:15:11.261Z,-1.00
2023-02-06T14:17:50.180Z,-1.00
2023-02-06T14:20:31.825Z,-1.00
2023-02-06T14:23:07.166Z,-1.00
2023-02-06T14:25:47.771Z,-1.00
2023-02-06T14:28:50.473Z,-1.00
2023-02-06T14:31:29.661Z,-1.00
2023-02-06T14:34:30.005Z,-1.00
2023-02-06T14:37:08.084Z,-1.00
2023-02-06T14:39:56.881Z,-1.00
2023-02-06T14:42:40.716Z,-1.00
2023-02-06T14:45:21.502Z,-1.00
2023-02-06T14:47:50.214Z,-1.00
2023-02-06T14:50:25.568Z,-1.00
2023-02-06T14:53:07.290Z,-1.00
2023-02-06T14:55:38.324Z,-1.00
2023-02-06T14:58:26.230Z,-1.00
2023-02-06T15:00:55.093Z,-1.00
2023-02-06T15:03:28.061Z,-1.00
2023-02-06T15:06:04.519Z,-1.00
2023-02-06T15:08:33.624Z,-1.00
2023-02-06T15:11:07.955Z,-1.00
2023-02-06T15:13:38.413Z,-1.00
2023-02-06T15:16:09.694Z,-1.00
2023-02-06T15:18:38.154Z,-1.00
2023-02-06T15:21:16.874Z,-1.00
2023-02-06T15:24:23.429Z,-1.00
2023-02-06T15:27:20.442Z,-1.00
2023-02-06T15:29:49.904Z,-1.00
2023-02-06T15:32:21.913Z,-1.00
2023-02-06T15:34:50.294Z,-1.00
2023-02-06T15:37:30.415Z,-1.00
2023-02-06T15:40:07.691Z,-1.00
2023-02-06T15:42:36.277Z,-1.00
2023-02-06T15:45:05.356Z,-1.00
2023-02-06T15:47:33.693Z,-1.00
2023-02-06T15:50:01.939Z,-1.00
2023-02-06T15:52:33.695Z,-1.00
2023-02-06T15:55:03.358Z,-1.00
2023-02-06T15:57:38.616Z,-1.00
2023-02-06T16:00:23.491Z,-1.00
2023-02-06T16:02:53.577Z,-1.00
2023-02-06T16:05:32.839Z,-1.00
2023-02-06T16:08:04.176Z,-1.00
2023-02-06T16:10:36.746Z,-1.00
2023-02-06T16:13:10.862Z,-1.00
2023-02-06T16:30:58.312Z,100791.10
2023-02-06T16:33:41.225Z,100795.46
2023-02-06T16:36:13.736Z,100790.33
2023-02-06T16:38:48.245Z,100784.89
2023-02-06T16:41:40.910Z,100779.93
2023-02-06T16:44:14.293Z,100777.30
2023-02-06T16:46:42.843Z,100774.84
2023-02-06T16:49:13.143Z,100775.91
2023-02-06T16:51:42.926Z,100774.46
2023-02-06T16:54:23.477Z,100774.64
2023-02-06T16:56:52.252Z,100775.57
2023-02-06T16:59:21.641Z,100775.19
2023-02-06T17:01:51.345Z,100772.76
2023-02-06T17:04:19.718Z,100776.64
2023-02-06T17:06:50.884Z,100771.50
2023-02-06T17:09:19.355Z,100766.83
2023-02-06T17:11:48.962Z,100768.75
2023-02-06T17:14:17.488Z,100769.63
2023-02-06T17:16:45.956Z,100772.13
2023-02-06T17:19:15.838Z,100773.09
2023-02-06T17:21:44.315Z,100775.78
2023-02-06T17:24:12.696Z,100779.23
2023-02-06T17:26:41.379Z,100779.35
2023-02-06T17:29:11.247Z,100781.55
2023-02-06T17:31:39.651Z,100779.40
2023-02-06T17:34:08.085Z,100782.54
2023-02-06T17:36:39.793Z,100776.45
2023-02-06T17:39:08.276Z,100763.77
2023-02-06T17:41:40.060Z,100762.73
2023-02-06T17:44:08.713Z,100764.56
2023-02-06T17:46:37.430Z,100764.73
2023-02-06T17:49:05.979Z,100758.80
2023-02-06T17:51:41.643Z,100758.64
2023-02-06T17:54:10.315Z,100759.36
2023-02-06T17:56:38.667Z,100755.78
2023-02-06T17:59:07.580Z,100756.77
2023-02-06T18:01:37.258Z,100761.33
2023-02-06T18:04:06.074Z,100763.52
2023-02-06T18:06:36.601Z,100764.44
2023-02-06T18:09:04.974Z,100762.52
2023-02-06T18:11:35.931Z,100756.55
2023-02-06T18:14:04.604Z,100762.23
2023-02-06T18:16:34.518Z,100763.39
2023-02-06T18:19:03.095Z,100762.76
2023-02-06T18:21:31.775Z,100761.83
2023-02-06T18:24:00.322Z,100763.40
2023-02-06T18:26:30.548Z,100761.66
2023-02-06T18:28:58.816Z,100768.66
2023-02-06T18:31:29.824Z,100780.72
2023-02-06T18:33:59.083Z,100781.52
2023-02-06T18:36:36.146Z,100777.80
2023-02-06T18:39:06.791Z,100775.80
2023-02-06T18:41:53.718Z,100772.85
2023-02-06T18:44:22.482Z,100778.25
2023-02-06T18:46:52.235Z,100775.81
2023-02-06T18:49:21.596Z,100782.52
2023-02-06T18:51:49.840Z,100781.94
2023-02-06T18:54:18.547Z,100782.95
2023-02-06T18:56:49.681Z,100787.21
2023-02-06T18:59:18.476Z,100783.66
2023-02-06T19:01:47.509Z,100776.93
2023-02-06T19:04:16.363Z,100776.92
2023-02-06T19:06:45.812Z,100781.15
2023-02-06T19:09:14.327Z,100775.98
2023-02-06T19:11:45.071Z,100775.52
2023-02-06T19:14:16.019Z,100773.27
2023-02-06T19:16:50.539Z,100767.80
2023-02-06T19:19:19.971Z,100762.36
2023-02-06T19:21:48.408Z,100762.06
2023-02-06T19:24:18.793Z,100762.40
2023-02-06T19:26:47.217Z,100766.51
2023-02-06T19:29:19.267Z,100768.81
2023-02-06T19:31:50.299Z,100775.42
2023-02-06T19:34:18.693Z,100773.23
2023-02-06T19:36:47.783Z,100774.56
2023-02-06T19:39:16.061Z,100773.35
2023-02-06T19:41:45.355Z,100769.83
2023-02-06T19:44:13.933Z,100764.91
2023-02-06T19:46:42.104Z,100766.56
2023-02-06T19:49:11.094Z,100763.84
2023-02-06T19:51:41.363Z,100760.73
2023-02-06T19:54:10.203Z,100760.28
2023-02-06T19:56:40.839Z,100761.23
2023-02-06T19:59:18.180Z,100757.58
2023-02-06T20:01:51.916Z,100757.98
2023-02-06T20:04:24.812Z,100754.86
2023-02-06T20:06:54.091Z,100755.20
2023-02-06T20:09:22.828Z,100755.30
2023-02-06T20:11:53.717Z,100762.11
2023-02-06T20:14:22.304Z,100761.92
2023-02-06T20:16:50.903Z,100758.22
2023-02-06T20:19:27.868Z,100757.38
2023-02-06T20:21:58.858Z,100756.27
2023-02-06T20:24:30.280Z,100756.71
2023-02-06T20:27:00.911Z,100758.33
2023-02-06T20:29:32.016Z,100754.06
2023-02-06T20:32:01.056Z,100761.63
2023-02-06T20:34:29.820Z,100750.21
2023-02-06T20:36:58.232Z,100749.25
2023-02-06T20:39:27.498Z,100744.51
2023-02-06T20:41:56.360Z,100742.23
2023-02-06T20:44:24.739Z,100740.41
2023-02-06T20:46:53.222Z,100740.88
2023-02-06T20:49:23.686Z,100740.79
2023-02-06T20:51:52.024Z,100739.39
2023-02-06T20:54:20.715Z,100734.49
2023-02-06T20:56:49.381Z,100730.00
2023-02-06T20:59:18.994Z,100724.62
2023-02-06T21:01:47.468Z,100724.00
2023-02-06T21:04:16.250Z,100717.61
2023-02-06T21:06:45.035Z,100719.72
2023-02-06T21:09:13.411Z,100725.70
2023-02-06T21:11:47.577Z,100730.38
2023-02-06T21:14:16.004Z,100731.77
2023-02-06T21:16:44.423Z,100730.27
2023-02-06T21:19:13.885Z,100724.48
2023-02-06T21:21:45.889Z,100719.61
2023-02-06T21:24:15.700Z,100716.29
2023-02-06T21:26:44.149Z,100715.04
2023-02-06T21:29:14.294Z,100713.86
2023-02-06T21:31:43.328Z,100712.47
2023-02-06T21:34:17.157Z,100714.42
2023-02-06T21:36:45.934Z,100707.92
2023-02-06T21:39:16.411Z,100708.61
2023-02-06T21:41:45.564Z,100706.64
2023-02-06T21:44:14.472Z,100708.66
2023-02-06T21:46:43.234Z,100706.14
2023-02-06T21:49:11.854Z,100701.65
2023-02-06T21:51:40.293Z,100698.59
2023-02-06T21:54:09.196Z,100700.88
2023-02-06T21:56:40.808Z,100695.27
2023-02-06T21:59:10.337Z,100692.71
2023-02-06T22:01:41.117Z,100697.34
2023-02-06T22:04:10.570Z,100700.73
2023-02-06T22:06:40.484Z,100702.31
2023-02-06T22:09:10.270Z,100698.31
2023-02-06T22:11:40.000Z,100696.33
2023-02-06T22:14:17.017Z,100696.20
2023-02-06T22:16:48.838Z,100694.05
2023-02-06T22:19:17.288Z,100692.44
2023-02-06T22:21:48.972Z,100688.32
2023-02-06T22:24:17.849Z,100687.38
2023-02-06T22:26:46.239Z,100690.44
2023-02-06T22:29:16.645Z,100686.73
2023-02-06T22:31:45.209Z,100685.21
2023-02-06T22:34:17.777Z,100687.61
2023-02-06T22:36:51.258Z,100685.45
2023-02-06T22:39:19.800Z,100686.33
2023-02-06T22:41:48.116Z,100681.00
2023-02-06T22:44:17.972Z,100678.51
2023-02-06T22:46:48.503Z,100674.79
2023-02-06T22:49:17.693Z,100666.05
2023-02-06T22:51:46.793Z,100660.78
2023-02-06T22:54:15.283Z,100660.91
2023-02-06T22:56:46.419Z,100656.23
2023-02-06T22:59:20.109Z,100658.01
2023-02-06T23:01:54.946Z,100653.44
2023-02-06T23:04:25.416Z,100653.56
2023-02-06T23:06:54.060Z,100653.27
2023-02-06T23:09:31.016Z,100654.29
2023-02-06T23:12:02.748Z,100651.95
2023-02-06T23:14:32.255Z,100645.88
2023-02-06T23:17:01.175Z,100648.04
2023-02-06T23:19:30.590Z,100646.59
2023-02-06T23:21:58.960Z,100649.55
2023-02-06T23:24:27.651Z,100650.00
2023-02-06T23:26:56.218Z,100660.27
2023-02-06T23:29:25.619Z,100656.59
2023-02-06T23:31:54.208Z,100654.30
2023-02-06T23:34:24.490Z,100653.52
2023-02-06T23:36:56.108Z,100648.67
2023-02-06T23:39:24.884Z,100648.73
2023-02-06T23:41:53.845Z,100651.22
2023-02-06T23:44:22.240Z,100653.46
2023-02-06T23:46:52.241Z,100649.62
2023-02-06T23:49:20.609Z,100651.31
2023-02-06T23:51:49.091Z,100654.46
2023-02-06T23:54:17.472Z,100651.85
2023-02-06T23:56:46.392Z,100647.75
2023-02-06T23:59:14.857Z,100651.02
